»·PEaware :: N2Q KHND-KTEX

N2Q :: KHND-KTEX

FLIGHT INFORMATION

Flight Status: Arrived
Operator: Privately registered:
United States
More flights under this callsign
Pilot: Max W. (2591)
Aircraft: GATES LEARJET LEARJET 45
(LJ45)
More flights by this aircraft type
Origin: KHND Henderson
United States
Destination: KTEX Telluride Regl
United States
More flights between these airports :: More routes between these airports
Route: +DVC24755 ETL
File this flight plan on PilotEdge
Remarks:
Altitude:
(Current/Filed)
39,000ft
Speed:
(Current/Filed)
450kts
Departed: 12-Jan-18 04:47 PM
Arrived: 12-Jan-18 06:00 PM
Distance/Time
Traveled:
366nm/1:13
Distance/Time
To Go:
Arrived

Flight Plot

Page will automatically refresh every two minutes.

Flight plan parsing failed; only flown route is shown


Map Options




Map Legend


Flown Route
Filed Route
Departure Airport
Arrival Airport
Navaid (VOR, NDB)
Fix

Horizontal Profiles

Position Reports

Time Latitude Longitude Heading Altitude Ground
Speed
12-Jan-18 16:16 35.973918 -115.138229 180 2494ft 0kts
12-Jan-18 16:17 35.973918 -115.138229 180 2494ft 0kts
12-Jan-18 16:18 35.973917 -115.138229 180 2494ft 0kts
12-Jan-18 16:19 35.973916 -115.138229 180 2494ft 0kts
12-Jan-18 16:20 35.973915 -115.138229 180 2494ft 0kts
12-Jan-18 16:21 35.973914 -115.138229 180 2494ft 0kts
12-Jan-18 16:22 35.973913 -115.138229 180 2494ft 0kts
12-Jan-18 16:23 35.973912 -115.138229 180 2494ft 0kts
12-Jan-18 16:24 35.973911 -115.138230 180 2494ft 0kts
12-Jan-18 16:25 35.973911 -115.138230 180 2494ft 0kts
12-Jan-18 16:26 35.973910 -115.138230 180 2494ft 0kts
12-Jan-18 16:27 35.973909 -115.138230 180 2494ft 0kts
12-Jan-18 16:28 35.973908 -115.138230 180 2494ft 0kts
12-Jan-18 16:29 35.973907 -115.138230 180 2494ft 0kts
12-Jan-18 16:30 35.973906 -115.138230 180 2494ft 0kts
12-Jan-18 16:31 35.973905 -115.138230 180 2494ft 0kts
12-Jan-18 16:32 35.973904 -115.138230 180 2494ft 0kts
12-Jan-18 16:33 35.973904 -115.138230 180 2494ft 0kts
12-Jan-18 16:34 35.973903 -115.138230 180 2494ft 0kts
12-Jan-18 16:35 35.973902 -115.138230 180 2494ft 0kts
12-Jan-18 16:36 35.973901 -115.138230 180 2494ft 0kts
12-Jan-18 16:37 35.973900 -115.138230 180 2494ft 0kts
12-Jan-18 16:38 35.973784 -115.138231 180 2494ft 0kts
12-Jan-18 16:39 35.973782 -115.138231 180 2494ft 0kts
12-Jan-18 16:40 35.973780 -115.138231 180 2494ft 0kts
12-Jan-18 16:41 35.973778 -115.138231 180 2494ft 0kts
12-Jan-18 16:42 35.973777 -115.138231 180 2494ft 0kts
12-Jan-18 16:43 35.973574 -115.137913 58 2495ft 11kts
12-Jan-18 16:44 35.973800 -115.137580 25 2494ft 0kts
12-Jan-18 16:45 35.974253 -115.137183 49 2494ft 0kts
12-Jan-18 16:46 35.972159 -115.136495 182 2495ft 14kts
12-Jan-18 16:47 35.968300 -115.136575 180 2495ft 22kts
12-Jan-18 16:48 35.964224 -115.136617 180 2495ft 13kts
12-Jan-18 16:49 35.963437 -115.136616 163 2495ft 0kts
12-Jan-18 16:50 35.963436 -115.136615 163 2495ft 0kts
12-Jan-18 16:51 35.963333 -115.136462 104 2495ft 0kts
12-Jan-18 16:52 35.963613 -115.135559 2 2495ft 0kts
12-Jan-18 16:53 35.975064 -115.135444 358 2565ft 176kts
12-Jan-18 16:54 35.977352 -115.179937 191 7474ft 217kts
12-Jan-18 16:56 35.973930 -115.138229 180 2494ft 0kts
12-Jan-18 16:57 35.971554 -115.136918 159 2495ft 25kts
12-Jan-18 16:58 35.963343 -115.136554 127 2494ft 12kts
12-Jan-18 16:59 35.993087 -115.132513 20 3954ft 213kts
12-Jan-18 17:00 35.991152 -115.069003 126 9479ft 284kts
12-Jan-18 17:01 35.991136 -114.975868 76 15795ft 269kts
12-Jan-18 17:02 35.999869 -114.877987 61 19806ft 294kts
12-Jan-18 17:03 36.035007 -114.780092 59 23265ft 332kts
12-Jan-18 17:04 36.071860 -114.670368 59 26615ft 356kts
12-Jan-18 17:05 36.109926 -114.555983 58 29904ft 360kts
12-Jan-18 17:06 36.147339 -114.443247 57 32724ft 359kts
12-Jan-18 17:07 36.187380 -114.322468 58 34365ft 384kts
12-Jan-18 17:08 36.228883 -114.196585 59 35817ft 406kts
12-Jan-18 17:09 36.271480 -114.066637 59 37481ft 412kts
12-Jan-18 17:10 36.312761 -113.939880 58 39879ft 387kts
12-Jan-18 17:11 36.351904 -113.819429 58 41873ft 362kts
12-Jan-18 17:12 36.391057 -113.699017 59 42270ft 385kts
12-Jan-18 17:13 36.430789 -113.575730 59 43268ft 385kts
12-Jan-18 17:14 36.470578 -113.451851 60 44131ft 385kts
12-Jan-18 17:15 36.510052 -113.328418 60 44933ft 384kts
12-Jan-18 17:16 36.549652 -113.204176 60 45390ft 391kts
12-Jan-18 17:17 36.590716 -113.074802 61 45400ft 414kts
12-Jan-18 17:18 36.633936 -112.937880 61 45405ft 437kts
12-Jan-18 17:19 36.679348 -112.793267 62 45413ft 458kts
12-Jan-18 17:20 36.726427 -112.642563 62 45414ft 476kts
12-Jan-18 17:21 36.775100 -112.485932 62 45415ft 489kts
12-Jan-18 17:22 36.824311 -112.326680 62 45410ft 494kts
12-Jan-18 17:23 36.873020 -112.168015 62 45386ft 485kts
12-Jan-18 17:24 36.921029 -112.011220 61 45402ft 479kts
12-Jan-18 17:25 36.968347 -111.855776 62 45397ft 480kts
12-Jan-18 17:26 37.015487 -111.699595 62 45389ft 481kts
12-Jan-18 17:27 37.062885 -111.542300 62 45384ft 482kts
12-Jan-18 17:28 37.110402 -111.385289 60 45381ft 481kts
12-Jan-18 17:29 37.157743 -111.228275 63 45385ft 481kts
12-Jan-18 17:30 37.203232 -111.070174 63 45386ft 483kts
12-Jan-18 17:31 37.249480 -110.912033 63 45386ft 484kts
12-Jan-18 17:32 37.295922 -110.752827 63 45387ft 485kts
12-Jan-18 17:33 37.342117 -110.593720 63 45417ft 485kts
12-Jan-18 17:34 37.388250 -110.433839 63 45418ft 486kts
12-Jan-18 17:35 37.434047 -110.274331 63 45429ft 485kts
12-Jan-18 17:36 37.479617 -110.114492 63 45440ft 485kts
12-Jan-18 17:37 37.525519 -109.954357 61 45451ft 484kts
12-Jan-18 17:38 37.575388 -109.797422 59 45463ft 480kts
12-Jan-18 17:39 37.623921 -109.639811 61 44526ft 481kts
12-Jan-18 17:40 37.671613 -109.484587 60 42040ft 468kts
12-Jan-18 17:41 37.718084 -109.332756 59 39059ft 459kts
12-Jan-18 17:42 37.763854 -109.182680 58 35358ft 455kts
12-Jan-18 17:43 37.808778 -109.034475 58 31029ft 447kts
12-Jan-18 17:44 37.852766 -108.892293 59 27505ft 402kts
12-Jan-18 17:45 37.892301 -108.770363 43 26967ft 378kts
12-Jan-18 17:46 37.932188 -108.632041 61 25082ft 414kts
12-Jan-18 17:47 37.967462 -108.506705 59 23298ft 353kts
12-Jan-18 17:48 38.001134 -108.391437 59 20195ft 358kts
12-Jan-18 17:49 38.036467 -108.271363 62 16307ft 366kts
12-Jan-18 17:50 38.083258 -108.166143 31 13462ft 293kts
12-Jan-18 17:51 38.145568 -108.178154 328 13454ft 216kts
12-Jan-18 17:52 38.182164 -108.235604 289 13463ft 224kts
12-Jan-18 17:53 38.171038 -108.318070 255 13471ft 255kts
12-Jan-18 17:54 38.146483 -108.406048 255 13475ft 273kts
12-Jan-18 17:55 38.083040 -108.448489 159 13452ft 286kts
12-Jan-18 17:56 38.055676 -108.377476 59 13061ft 225kts
12-Jan-18 17:57 38.054456 -108.305515 105 12996ft 206kts
12-Jan-18 17:58 38.033771 -108.237948 105 13000ft 196kts
12-Jan-18 17:59 38.011112 -108.163445 106 13012ft 254kts
12-Jan-18 18:00 37.991041 -108.085836 100 12364ft 225kts
12-Jan-18 18:01 37.969437 -108.014678 116 11349ft 204kts
12-Jan-18 18:02 37.948806 -107.956474 112 10582ft 155kts
12-Jan-18 18:03 37.931846 -107.902759 113 10227ft 162kts
12-Jan-18 18:04 37.919270 -107.849985 28 10852ft 172kts
12-Jan-18 18:05 37.949594 -107.888488 284 9309ft 154kts
12-Jan-18 18:06 37.954275 -107.911396 98 9081ft 11kts
12-Jan-18 18:07 37.952445 -107.901649 55 9081ft 22kts
12-Jan-18 18:08 37.953673 -107.901339 220 9081ft 0kts
12-Jan-18 18:09 37.953673 -107.901339 220 9081ft 0kts
12-Jan-18 18:10 37.953673 -107.901339 220 9081ft 0kts
12-Jan-18 18:11 37.953673 -107.901339 220 9081ft 0kts
12-Jan-18 18:12 37.953673 -107.901339 220 9081ft 0kts
12-Jan-18 18:13 37.953673 -107.901339 220 9081ft 0kts
12-Jan-18 18:14 37.953673 -107.901339 220 9081ft 0kts
12-Jan-18 18:15 37.953673 -107.901339 220 9081ft 0kts
12-Jan-18 18:16 37.953673 -107.901339 220 9081ft 0kts
12-Jan-18 18:17 37.953673 -107.901339 220 9081ft 0kts
12-Jan-18 18:18 37.953673 -107.901339 220 9081ft 0kts

Navigation Log

Ident Type
Flight plan parsing failed, navigation log unavailable